Time;durP1;ratioP1;P1;durP2;ratioP2;P2;SDS_P1;SDS_P2;PMS_P1;PMS_P2;Temp;Humidity;BMP_temperature;BMP_pressure;BME280_temperature;BME280_humidity;BME280_pressure;Samples;Min_cycle;Max_cycle;Signal;HPM_P1;HPM_P2
2020/12/02 05:00:17;;;;;;;44.45;24.30;;;3.80;99.90;;;;;;6062674;23;20221;31
2020/12/02 05:02:44;;;;;;;44.13;24.23;;;3.90;99.90;;;;;;4973804;28;20224;-67
2020/12/02 05:05:19;;;;;;;39.53;24.55;;;3.90;99.90;;;;;;4976111;28;20204;-66
2020/12/02 05:07:45;;;;;;;49.88;27.88;;;3.90;99.90;;;;;;4976229;28;20219;-67
2020/12/02 05:10:15;;;;;;;47.55;25.40;;;3.90;99.90;;;;;;4975671;28;20239;-68
2020/12/02 05:12:44;;;;;;;40.80;23.40;;;3.90;99.90;;;;;;4955924;28;20559;-67
2020/12/02 05:15:23;;;;;;;43.25;24.50;;;3.90;99.90;;;;;;4956899;28;20213;-68
2020/12/02 05:18:06;;;;;;;49.15;24.10;;;3.90;99.90;;;;;;4956062;28;20292;-67
2020/12/02 05:20:32;;;;;;;42.85;23.60;;;3.90;99.90;;;;;;4942694;29;20540;-67
2020/12/02 05:23:08;;;;;;;38.17;23.30;;;3.90;99.90;;;;;;4956023;28;20213;-67
2020/12/02 05:25:35;;;;;;;47.33;24.23;;;3.90;99.90;;;;;;4955165;29;20232;-67
2020/12/02 05:28:05;;;;;;;43.83;24.20;;;3.90;99.90;;;;;;4956948;29;20206;-67
2020/12/02 05:30:34;;;;;;;41.03;24.23;;;3.90;99.90;;;;;;4953847;28;20292;-67
2020/12/02 05:33:17;;;;;;;43.80;23.90;;;3.90;99.90;;;;;;4937195;29;20332;-66
2020/12/02 05:35:47;;;;;;;38.85;24.83;;;3.90;99.90;;;;;;4940864;29;20212;-66
2020/12/02 05:38:21;;;;;;;39.97;23.63;;;3.90;99.90;;;;;;4956836;28;20628;-66
2020/12/02 05:40:51;;;;;;;44.45;24.85;;;3.90;99.90;;;;;;4955065;29;20256;-66
2020/12/02 05:43:22;;;;;;;42.92;23.58;;;3.90;99.90;;;;;;4956438;29;20205;-66
2020/12/02 05:45:51;;;;;;;41.35;24.23;;;3.90;99.90;;;;;;4954611;28;20225;-66
2020/12/02 05:48:23;;;;;;;35.53;22.60;;;3.90;99.90;;;;;;4957055;28;20269;-67
2020/12/02 05:50:50;;;;;;;46.13;27.13;;;3.90;99.90;;;;;;4945511;28;20221;-67
2020/12/02 05:53:23;;;;;;;47.35;25.45;;;3.90;99.90;;;;;;4956479;28;20213;-67
2020/12/02 05:55:51;;;;;;;44.42;24.52;;;3.90;99.90;;;;;;4954611;28;20346;-67
2020/12/02 05:58:20;;;;;;;45.28;25.40;;;3.90;99.90;;;;;;4955826;28;20237;-67
2020/12/02 06:00:46;;;;;;;43.72;23.73;;;3.90;99.90;;;;;;4954072;28;20307;-67
2020/12/02 06:03:14;;;;;;;40.08;22.42;;;3.90;99.90;;;;;;4955560;28;20256;-67
2020/12/02 06:05:42;;;;;;;37.60;24.20;;;3.90;99.90;;;;;;4954815;28;20296;-67
2020/12/02 06:08:09;;;;;;;44.42;27.65;;;3.90;99.90;;;;;;4955965;28;20205;-68
2020/12/02 06:11:18;;;;;;;40.85;24.42;;;3.90;99.90;;;;;;4945963;28;20233;-68
2020/12/02 06:13:46;;;;;;;44.88;26.20;;;3.90;99.90;;;;;;4955375;28;20209;-68
2020/12/02 06:16:15;;;;;;;40.75;23.30;;;3.90;99.90;;;;;;4954508;28;20209;-68
2020/12/02 06:18:41;;;;;;;38.58;23.40;;;3.90;99.90;;;;;;4955947;28;20524;-68
2020/12/02 06:21:26;;;;;;;40.92;24.35;;;3.90;99.90;;;;;;4949341;28;20225;-67
2020/12/02 06:23:56;;;;;;;34.85;22.90;;;3.90;99.90;;;;;;4955164;28;20205;-68
2020/12/02 06:26:33;;;;;;;38.28;23.05;;;3.90;99.90;;;;;;4949023;28;20367;-68
2020/12/02 06:29:00;;;;;;;38.08;23.55;;;3.90;99.90;;;;;;4956251;28;20256;-67
2020/12/02 06:31:28;;;;;;;42.08;23.52;;;3.80;99.90;;;;;;4949250;28;20627;-67
2020/12/02 06:33:56;;;;;;;39.00;23.27;;;3.80;99.90;;;;;;4953122;28;20201;-67
2020/12/02 06:36:27;;;;;;;41.53;24.85;;;3.80;99.90;;;;;;4956938;28;20201;-68
2020/12/02 06:38:55;;;;;;;42.70;24.25;;;3.80;99.90;;;;;;4958377;28;20213;-68
2020/12/02 06:41:33;;;;;;;38.85;22.25;;;3.80;99.90;;;;;;4958628;29;20260;-68
2020/12/02 06:44:39;;;;;;;46.70;26.10;;;3.80;99.90;;;;;;4958301;28;20220;-67
2020/12/02 06:47:25;;;;;;;40.13;23.13;;;3.80;99.90;;;;;;4958866;28;20252;-66
2020/12/02 06:50:07;;;;;;;39.88;26.08;;;3.80;99.90;;;;;;4957999;28;20220;-67
2020/12/02 06:52:36;;;;;;;41.53;24.88;;;3.80;99.90;;;;;;4954987;28;20213;-66
2020/12/02 06:55:11;;;;;;;40.10;25.75;;;3.80;99.90;;;;;;4954265;28;20205;-66
2020/12/02 06:57:37;;;;;;;45.75;24.40;;;3.80;99.90;;;;;;4953594;28;20216;-66
2020/12/02 07:00:08;;;;;;;38.85;22.65;;;3.80;99.90;;;;;;4954611;28;20249;-66
2020/12/02 07:02:40;;;;;;;46.13;26.33;;;3.80;99.90;;;;;;4954903;28;20221;-66
2020/12/02 07:05:11;;;;;;;54.08;26.92;;;3.80;99.90;;;;;;4954813;28;20669;-66
2020/12/02 07:07:38;;;;;;;40.80;25.05;;;3.80;99.90;;;;;;4954809;28;20209;-66
2020/12/02 07:10:04;;;;;;;38.20;24.15;;;3.80;99.90;;;;;;4954657;28;20257;-66
2020/12/02 07:12:31;;;;;;;44.90;24.30;;;3.80;99.90;;;;;;4954456;28;20288;-66
2020/12/02 07:15:01;;;;;;;45.15;25.58;;;3.80;99.90;;;;;;4955056;28;20212;-66
2020/12/02 07:17:28;;;;;;;47.85;27.52;;;3.80;99.90;;;;;;4954571;28;20275;-67
2020/12/02 07:20:02;;;;;;;41.25;24.55;;;3.80;99.90;;;;;;4954365;28;20208;-66
2020/12/02 07:22:34;;;;;;;45.13;24.90;;;3.80;99.90;;;;;;4954017;28;20224;-66
2020/12/02 07:25:05;;;;;;;40.00;23.23;;;3.80;99.90;;;;;;4951003;28;20209;-66
2020/12/02 07:27:31;;;;;;;43.70;24.67;;;3.80;99.90;;;;;;4947161;29;20241;-67
2020/12/02 07:29:58;;;;;;;39.65;24.02;;;3.80;99.90;;;;;;4954189;28;20213;-67
2020/12/02 07:32:25;;;;;;;37.30;23.15;;;3.80;99.90;;;;;;4952089;28;20287;-67
2020/12/02 07:34:59;;;;;;;41.45;24.92;;;3.80;99.90;;;;;;4932213;29;20265;-66
2020/12/02 07:37:25;;;;;;;37.80;24.00;;;3.80;99.90;;;;;;4952145;29;20260;-66
2020/12/02 07:39:54;;;;;;;41.25;23.35;;;3.80;99.90;;;;;;4953430;29;20205;-67
2020/12/02 07:42:23;;;;;;;42.55;24.35;;;3.80;99.90;;;;;;4952096;28;20591;-66
2020/12/02 07:45:02;;;;;;;43.40;23.77;;;3.80;99.90;;;;;;4955829;28;20341;-66
2020/12/02 07:47:28;;;;;;;38.50;23.23;;;3.80;99.90;;;;;;4934922;29;20233;-66
2020/12/02 07:50:00;;;;;;;42.03;23.25;;;3.80;99.90;;;;;;4941214;29;20356;-66
2020/12/02 07:52:32;;;;;;;40.33;23.15;;;3.80;99.90;;;;;;4937631;29;20724;-66
2020/12/02 07:54:59;;;;;;;45.60;23.33;;;3.80;99.90;;;;;;4952398;28;20209;-66
2020/12/02 07:57:28;;;;;;;36.63;24.30;;;3.80;99.90;;;;;;4951101;28;20203;-66
2020/12/02 08:00:20;;;;;;;46.38;23.95;;;3.80;99.90;;;;;;4935039;29;20575;-66
2020/12/02 08:02:47;;;;;;;32.97;19.15;;;3.80;99.90;;;;;;4940750;29;20201;-67
2020/12/02 08:05:34;;;;;;;38.08;22.75;;;3.70;99.90;;;;;;4952921;28;20217;-67
2020/12/02 08:08:00;;;;;;;38.90;22.88;;;3.70;99.90;;;;;;4952873;28;20216;-66
2020/12/02 08:10:31;;;;;;;38.70;23.73;;;3.70;99.90;;;;;;4943481;28;20222;-67
2020/12/02 08:12:58;;;;;;;39.72;23.92;;;3.70;99.90;;;;;;4953521;29;20255;-67
2020/12/02 08:15:25;;;;;;;38.67;23.58;;;3.80;99.90;;;;;;4942700;29;20210;-67
2020/12/02 08:18:14;;;;;;;29.42;17.33;;;3.80;99.90;;;;;;4953950;28;20629;-67
2020/12/02 08:20:41;;;;;;;34.75;22.95;;;3.70;99.90;;;;;;4952555;28;20217;-67
2020/12/02 08:23:09;;;;;;;33.35;20.67;;;3.70;99.90;;;;;;4940757;28;20210;-67
2020/12/02 08:25:39;;;;;;;42.97;25.75;;;3.70;99.90;;;;;;4941575;29;20265;-67
2020/12/02 08:28:10;;;;;;;40.13;23.77;;;3.70;99.90;;;;;;4943259;28;20210;-67
2020/12/02 08:30:38;;;;;;;40.67;23.15;;;3.80;99.90;;;;;;4940725;28;20229;-67
2020/12/02 08:33:10;;;;;;;39.65;24.25;;;3.80;99.90;;;;;;4952512;28;20217;-67
2020/12/02 08:35:40;;;;;;;42.80;23.63;;;3.80;99.90;;;;;;4953011;28;20205;-67
2020/12/02 08:38:13;;;;;;;43.78;22.05;;;3.80;99.90;;;;;;4948353;28;20205;-67
2020/12/02 08:40:44;;;;;;;35.33;22.58;;;3.80;99.90;;;;;;4951369;28;20297;-67
2020/12/02 08:43:26;;;;;;;40.78;24.73;;;3.80;99.90;;;;;;4948047;28;20217;-67
2020/12/02 08:45:55;;;;;;;37.55;20.70;;;3.80;99.90;;;;;;4934780;29;20234;-67
2020/12/02 08:48:22;;;;;;;45.45;25.25;;;3.80;99.90;;;;;;4934474;29;20210;-67
2020/12/02 08:50:48;;;;;;;34.55;22.20;;;3.80;99.90;;;;;;4949093;29;21097;-67
2020/12/02 08:53:22;;;;;;;38.75;23.60;;;3.80;99.90;;;;;;4952743;28;20606;-67
2020/12/02 08:55:49;;;;;;;38.88;23.85;;;3.80;99.90;;;;;;4940556;29;20292;-67
2020/12/02 08:58:15;;;;;;;37.38;22.23;;;3.80;99.90;;;;;;4955566;28;20213;-67
2020/12/02 09:00:41;;;;;;;33.22;19.75;;;3.80;99.90;;;;;;4943396;28;20653;-66
2020/12/02 09:03:07;;;;;;;31.42;21.20;;;3.80;99.90;;;;;;4937485;29;20210;-67
2020/12/02 09:05:34;;;;;;;39.67;22.30;;;3.80;99.90;;;;;;4953423;29;20681;-67
2020/12/02 09:08:00;;;;;;;36.90;24.20;;;3.80;99.90;;;;;;4957214;29;20216;-67
2020/12/02 09:10:26;;;;;;;40.08;23.17;;;3.80;99.90;;;;;;4948933;29;20233;-67
2020/12/02 09:12:53;;;;;;;32.20;22.17;;;3.80;99.90;;;;;;4956246;28;20213;-67
2020/12/02 09:15:19;;;;;;;33.65;22.67;;;3.80;99.90;;;;;;4944960;28;20210;-67
2020/12/02 09:17:45;;;;;;;25.13;16.00;;;3.80;99.90;;;;;;4937353;29;20737;-67
2020/12/02 09:20:11;;;;;;;33.85;20.33;;;3.80;99.90;;;;;;4949038;29;20212;-67
2020/12/02 09:22:37;;;;;;;36.58;21.65;;;3.80;99.90;;;;;;4955134;29;20197;-67
2020/12/02 09:25:03;;;;;;;39.80;22.00;;;3.80;99.90;;;;;;4955433;28;20272;-67
2020/12/02 09:27:31;;;;;;;36.10;22.40;;;3.80;99.90;;;;;;4947580;28;20689;-67
2020/12/02 09:29:58;;;;;;;34.70;22.45;;;3.80;99.90;;;;;;4951955;29;20234;-67
2020/12/02 09:32:24;;;;;;;34.90;20.73;;;3.80;99.90;;;;;;4944488;29;20635;-67
2020/12/02 09:34:50;;;;;;;35.08;23.50;;;3.80;99.90;;;;;;4954493;29;20256;-67
2020/12/02 09:37:17;;;;;;;44.85;24.33;;;3.80;99.90;;;;;;4944218;28;20253;-67
2020/12/02 09:39:43;;;;;;;37.28;23.50;;;3.80;99.90;;;;;;4937763;29;20348;-67
2020/12/02 09:42:47;;;;;;;39.33;21.15;;;3.90;99.90;;;;;;4954317;29;20244;-67
2020/12/02 09:45:26;;;;;;;31.20;17.90;;;3.80;99.90;;;;;;4951244;28;20206;-67
2020/12/02 09:47:54;;;;;;;38.58;23.30;;;3.80;99.90;;;;;;4936489;29;20222;-67
2020/12/02 09:50:20;;;;;;;41.22;22.20;;;3.80;99.90;;;;;;4947892;29;20251;-66
2020/12/02 09:52:48;;;;;;;38.40;24.10;;;3.90;99.90;;;;;;4955373;28;20738;-66
2020/12/02 09:55:19;;;;;;;35.88;22.65;;;3.90;99.90;;;;;;4955271;28;20213;-66
2020/12/02 09:57:45;;;;;;;43.00;24.65;;;3.90;99.90;;;;;;4955658;29;20514;-66
2020/12/02 10:00:13;;;;;;;33.45;20.38;;;4.00;99.90;;;;;;4947307;29;20702;-66
2020/12/02 10:03:15;;;;;;;34.80;21.95;;;3.90;99.90;;;;;;4936156;29;20221;-66
2020/12/02 10:06:09;;;;;;;35.70;22.00;;;4.00;99.90;;;;;;4927760;28;20220;-66
2020/12/02 10:08:51;;;;;;;38.08;23.40;;;4.00;99.90;;;;;;4955285;28;20662;-66
2020/12/02 10:11:30;;;;;;;36.25;22.90;;;4.10;99.90;;;;;;4954814;29;20784;-66
2020/12/02 10:14:10;;;;;;;39.88;24.75;;;4.10;99.90;;;;;;4949098;29;20311;-67
2020/12/02 10:16:44;;;;;;;40.42;23.20;;;4.10;99.90;;;;;;4936607;29;20209;-66
2020/12/02 10:19:26;;;;;;;39.05;23.50;;;4.20;99.90;;;;;;4943089;29;20216;-66
2020/12/02 10:22:26;;;;;;;39.25;22.33;;;4.20;99.90;;;;;;4937826;29;20713;-66
2020/12/02 10:25:09;;;;;;;37.22;23.10;;;4.20;99.90;;;;;;4954764;28;20229;-66
2020/12/02 10:27:51;;;;;;;37.53;24.23;;;4.30;99.90;;;;;;4941250;28;20229;-67
2020/12/02 10:30:20;;;;;;;35.30;22.60;;;4.30;99.90;;;;;;4947368;29;20724;-66
2020/12/02 10:32:58;;;;;;;39.75;22.92;;;4.40;99.90;;;;;;4954686;28;20657;-67
2020/12/02 10:35:25;;;;;;;36.25;22.90;;;4.50;99.90;;;;;;4943713;29;20540;-67
2020/12/02 10:37:57;;;;;;;38.55;23.23;;;4.50;99.90;;;;;;4935956;29;20607;-67
2020/12/02 10:40:25;;;;;;;41.50;25.65;;;4.60;99.90;;;;;;4943165;28;20214;-67
2020/12/02 10:43:02;;;;;;;35.33;23.02;;;4.60;99.90;;;;;;4935117;29;20628;-67
2020/12/02 10:45:28;;;;;;;41.38;23.55;;;4.70;99.90;;;;;;4937262;29;20210;-67
2020/12/02 10:48:21;;;;;;;34.45;21.88;;;4.60;99.90;;;;;;4937956;29;20706;-67
2020/12/02 10:50:47;;;;;;;36.45;20.27;;;4.50;99.90;;;;;;4956364;28;20228;-67
2020/12/02 10:53:18;;;;;;;34.20;20.63;;;4.40;99.90;;;;;;4957715;28;20217;-68
2020/12/02 10:55:44;;;;;;;30.58;19.90;;;4.40;99.90;;;;;;4958472;28;20209;-67
2020/12/02 10:58:17;;;;;;;34.42;21.75;;;4.40;99.90;;;;;;4954321;29;20205;-67
2020/12/02 11:00:44;;;;;;;30.70;20.23;;;4.40;99.90;;;;;;4951827;28;20237;-67
2020/12/02 11:03:18;;;;;;;38.08;22.15;;;4.40;99.90;;;;;;4949604;28;20210;-67
2020/12/02 11:05:53;;;;;;;41.50;24.10;;;4.50;99.90;;;;;;4940480;28;20885;-67
2020/12/02 11:08:34;;;;;;;24.88;16.92;;;4.60;99.90;;;;;;4956240;28;20275;-67
2020/12/02 11:11:13;;;;;;;34.85;21.48;;;4.50;99.90;;;;;;4953317;28;20236;-67
2020/12/02 11:13:49;;;;;;;34.85;20.92;;;4.50;99.90;;;;;;4953031;28;20276;-67
2020/12/02 11:16:25;;;;;;;34.83;20.77;;;4.50;99.90;;;;;;4954500;28;21833;-69
2020/12/02 11:19:07;;;;;;;36.13;24.80;;;4.40;99.90;;;;;;4939390;28;20210;-68
2020/12/02 11:22:00;;;;;;;39.28;24.02;;;4.40;99.90;;;;;;4949776;29;20619;-69
2020/12/02 11:24:41;;;;;;;31.08;21.00;;;4.50;99.90;;;;;;4952486;28;20209;-67
2020/12/02 11:27:08;;;;;;;38.97;20.83;;;4.50;99.90;;;;;;4953584;28;20621;-67
2020/12/02 11:29:34;;;;;;;32.78;22.67;;;4.50;99.90;;;;;;4954202;28;20213;-67
2020/12/02 11:32:39;;;;;;;35.22;21.67;;;4.50;99.90;;;;;;4953123;28;20292;-67
2020/12/02 11:35:33;;;;;;;35.00;23.40;;;4.50;99.90;;;;;;4952713;28;20209;-67
2020/12/02 11:38:05;;;;;;;27.35;17.80;;;4.50;99.90;;;;;;4949677;29;20193;-67
2020/12/02 11:40:39;;;;;;;35.55;21.60;;;4.50;99.90;;;;;;4950032;28;20642;-68
2020/12/02 11:43:15;;;;;;;36.97;23.75;;;4.40;99.90;;;;;;4953732;28;20208;-67
2020/12/02 11:45:44;;;;;;;39.08;22.33;;;4.40;99.90;;;;;;4953112;28;20263;-67
2020/12/02 11:48:19;;;;;;;30.25;20.23;;;4.40;99.90;;;;;;4951990;29;20233;-67
2020/12/02 11:50:52;;;;;;;33.50;19.92;;;4.40;99.90;;;;;;4946797;28;20225;-67
2020/12/02 11:53:41;;;;;;;36.78;23.83;;;4.40;99.90;;;;;;4945268;29;20213;-67
2020/12/02 11:56:10;;;;;;;24.70;15.10;;;4.40;99.90;;;;;;4952418;28;20334;-67
2020/12/02 11:58:36;;;;;;;30.98;21.00;;;4.40;99.90;;;;;;4950918;29;20252;-67
2020/12/02 12:01:12;;;;;;;35.33;21.83;;;4.40;99.90;;;;;;4945403;28;20237;-67
2020/12/02 12:03:45;;;;;;;33.72;22.63;;;4.40;99.90;;;;;;4953273;28;20563;-67
2020/12/02 12:06:15;;;;;;;38.97;18.73;;;4.40;99.90;;;;;;4953023;29;20221;-67
2020/12/02 12:08:52;;;;;;;31.73;19.25;;;4.40;99.90;;;;;;4951273;28;20197;-67
2020/12/02 12:11:28;;;;;;;34.30;22.58;;;4.40;99.90;;;;;;4946542;28;20233;-67
2020/12/02 12:13:58;;;;;;;34.50;19.88;;;4.30;99.90;;;;;;4952919;29;20220;-66
2020/12/02 12:16:32;;;;;;;30.33;18.70;;;4.30;99.90;;;;;;4937063;28;20213;-66
2020/12/02 12:19:02;;;;;;;35.83;22.23;;;4.20;99.90;;;;;;4942550;29;20209;-67
2020/12/02 12:21:33;;;;;;;41.20;21.80;;;4.20;99.90;;;;;;4935544;28;20277;-66
2020/12/02 12:24:05;;;;;;;36.42;21.10;;;4.20;99.90;;;;;;4952874;28;20759;-67
2020/12/02 12:26:36;;;;;;;38.35;21.88;;;4.20;99.90;;;;;;4951656;28;20312;-66
2020/12/02 12:29:05;;;;;;;40.00;23.02;;;4.10;99.90;;;;;;4952893;28;20269;-66
2020/12/02 12:31:35;;;;;;;40.33;24.10;;;4.10;99.90;;;;;;4936489;28;20225;-66
2020/12/02 12:34:12;;;;;;;42.17;24.73;;;4.10;99.90;;;;;;4953462;28;20256;-66
2020/12/02 12:36:38;;;;;;;35.13;21.10;;;4.10;99.90;;;;;;4957287;28;20193;-67
2020/12/02 12:39:12;;;;;;;38.97;23.35;;;4.10;99.90;;;;;;4955799;28;20671;-67
2020/12/02 12:41:42;;;;;;;45.90;24.00;;;4.10;99.90;;;;;;4955746;28;20597;-66
2020/12/02 12:44:15;;;;;;;42.70;24.77;;;4.10;99.90;;;;;;4951808;28;20216;-66
2020/12/02 12:46:48;;;;;;;33.60;20.50;;;4.00;99.90;;;;;;4957060;28;20576;-66
2020/12/02 12:49:16;;;;;;;39.47;22.02;;;4.00;99.90;;;;;;4956727;28;20246;-67
2020/12/02 12:51:44;;;;;;;39.63;23.13;;;4.00;99.90;;;;;;4956349;28;20280;-66
2020/12/02 12:54:13;;;;;;;43.22;24.60;;;4.00;99.90;;;;;;4955285;28;20263;-66
2020/12/02 12:56:42;;;;;;;42.28;24.48;;;4.00;99.90;;;;;;4955907;28;20209;-67
2020/12/02 12:59:10;;;;;;;37.38;23.13;;;4.00;99.90;;;;;;4954461;28;20205;-67
2020/12/02 13:01:38;;;;;;;31.73;16.85;;;4.10;99.90;;;;;;4955153;28;20606;-66
2020/12/02 13:04:07;;;;;;;39.95;23.25;;;4.10;99.90;;;;;;4956407;28;20213;-66
2020/12/02 13:06:47;;;;;;;39.50;24.77;;;4.10;99.90;;;;;;4953229;28;20253;-67
2020/12/02 13:09:22;;;;;;;41.55;24.20;;;4.10;99.90;;;;;;4949164;28;20625;-67
2020/12/02 13:12:03;;;;;;;41.97;26.00;;;4.10;99.90;;;;;;4936708;29;20245;-67
2020/12/02 13:14:44;;;;;;;42.00;24.80;;;4.10;99.90;;;;;;4954956;29;20256;-67
2020/12/02 13:17:18;;;;;;;44.00;25.63;;;4.20;99.90;;;;;;4956768;29;20190;-67
2020/12/02 13:19:49;;;;;;;40.67;23.38;;;4.20;99.90;;;;;;4950223;28;20239;-67
2020/12/02 13:22:25;;;;;;;37.85;25.55;;;4.20;99.90;;;;;;4949764;29;20301;-66
2020/12/02 13:24:57;;;;;;;39.33;24.55;;;4.20;99.90;;;;;;4937640;28;20690;-67
2020/12/02 13:27:34;;;;;;;38.00;25.17;;;4.20;99.90;;;;;;4952904;29;20213;-67
2020/12/02 13:30:08;;;;;;;37.60;18.98;;;4.20;99.90;;;;;;4937411;29;20249;-67
2020/12/02 13:32:41;;;;;;;40.15;21.70;;;4.10;99.90;;;;;;4936788;29;20233;-67
2020/12/02 13:35:08;;;;;;;43.83;25.00;;;4.20;99.90;;;;;;4937671;29;20198;-67
2020/12/02 13:37:35;;;;;;;37.50;23.60;;;4.10;99.90;;;;;;4937412;29;20640;-67
2020/12/02 13:40:01;;;;;;;41.15;22.45;;;4.10;99.90;;;;;;4938600;28;20655;-67
2020/12/02 13:42:29;;;;;;;40.08;24.35;;;4.10;99.90;;;;;;4953557;28;20276;-67
2020/12/02 13:45:02;;;;;;;42.45;25.17;;;4.10;99.90;;;;;;4952691;28;20283;-67
2020/12/02 13:47:29;;;;;;;35.55;21.73;;;4.10;99.90;;;;;;4955172;28;20683;-67
2020/12/02 13:49:56;;;;;;;44.33;26.83;;;4.10;99.90;;;;;;4950196;28;20218;-67
2020/12/02 13:52:27;;;;;;;49.60;25.85;;;4.00;99.90;;;;;;4954454;28;20306;-67
2020/12/02 13:55:12;;;;;;;46.22;26.55;;;4.00;99.90;;;;;;4955078;28;20201;-67
2020/12/02 13:57:47;;;;;;;40.78;22.70;;;4.00;99.90;;;;;;4955193;28;20545;-67
2020/12/02 14:00:39;;;;;;;49.22;27.55;;;4.00;99.90;;;;;;4948084;28;20194;-67
2020/12/02 14:03:21;;;;;;;44.97;25.67;;;4.00;99.90;;;;;;4953679;29;20297;-67
2020/12/02 14:05:59;;;;;;;46.28;24.42;;;3.90;99.90;;;;;;4953592;28;20609;-67
2020/12/02 14:08:26;;;;;;;44.28;25.00;;;3.90;99.90;;;;;;4952487;29;20695;-67
2020/12/02 14:10:55;;;;;;;42.83;22.38;;;3.90;99.90;;;;;;4943291;29;20225;-67
2020/12/02 14:13:23;;;;;;;44.50;25.35;;;3.80;99.90;;;;;;4954455;28;20229;-67
2020/12/02 14:15:50;;;;;;;44.65;23.88;;;3.80;99.90;;;;;;4955454;29;20209;-67
2020/12/02 14:18:17;;;;;;;50.80;28.55;;;3.80;99.90;;;;;;4955430;28;20197;-67
2020/12/02 14:20:43;;;;;;;49.88;29.00;;;3.80;99.90;;;;;;4956206;28;20338;-67
2020/12/02 14:23:13;;;;;;;45.25;25.88;;;3.80;99.90;;;;;;4954630;28;20210;-67
2020/12/02 14:25:41;;;;;;;53.45;29.33;;;3.90;99.90;;;;;;4952944;29;20288;-67
2020/12/02 14:28:11;;;;;;;52.13;26.98;;;3.90;99.90;;;;;;4950056;29;20229;-66
2020/12/02 14:30:38;;;;;;;41.33;26.30;;;3.90;99.90;;;;;;4953173;28;20712;-67
2020/12/02 14:33:07;;;;;;;46.33;25.70;;;3.90;99.90;;;;;;4950901;28;20672;-66
2020/12/02 14:35:35;;;;;;;40.88;24.35;;;3.90;99.90;;;;;;4952278;28;20271;-66
2020/12/02 14:38:05;;;;;;;47.25;24.83;;;3.90;99.90;;;;;;4952076;28;20256;-66
2020/12/02 14:40:33;;;;;;;45.78;24.85;;;3.90;99.90;;;;;;4943087;29;20367;-66
2020/12/02 14:43:02;;;;;;;36.00;24.67;;;3.90;99.90;;;;;;4934787;29;20225;-67
2020/12/02 14:45:28;;;;;;;44.40;25.27;;;4.00;99.90;;;;;;4936005;29;20233;-66
2020/12/02 14:47:56;;;;;;;38.78;23.63;;;3.90;99.90;;;;;;4950167;28;20248;-67
2020/12/02 14:50:22;;;;;;;41.95;25.30;;;3.90;99.90;;;;;;4955013;28;20292;-67
2020/12/02 14:52:48;;;;;;;44.88;26.35;;;3.80;99.90;;;;;;4953843;28;20654;-67
2020/12/02 14:55:15;;;;;;;48.08;25.38;;;3.80;99.90;;;;;;4953841;28;20216;-67
2020/12/02 14:57:59;;;;;;;37.40;22.63;;;3.90;99.90;;;;;;4954417;28;20354;-67
2020/12/02 15:00:25;;;;;;;43.30;25.65;;;3.80;99.90;;;;;;4954366;28;20693;-67
2020/12/02 15:02:52;;;;;;;44.25;26.65;;;3.90;99.90;;;;;;4954241;28;20205;-68
2020/12/02 15:05:22;;;;;;;42.85;26.00;;;3.80;99.90;;;;;;4954513;28;20267;-68
2020/12/02 15:08:24;;;;;;;46.40;25.77;;;3.80;99.90;;;;;;4954633;28;20656;-68
2020/12/02 15:10:50;;;;;;;46.95;25.60;;;3.80;99.90;;;;;;4925513;28;20277;-67
2020/12/02 15:13:21;;;;;;;46.42;25.70;;;3.80;99.90;;;;;;4954157;28;20212;-67
2020/12/02 15:15:48;;;;;;;44.42;23.92;;;3.90;99.90;;;;;;4954364;28;20256;-67
2020/12/02 15:18:16;;;;;;;45.75;24.83;;;3.90;99.90;;;;;;4954356;28;20209;-67
2020/12/02 15:20:47;;;;;;;38.55;21.10;;;3.90;99.90;;;;;;4954000;28;20645;-67
2020/12/02 15:23:16;;;;;;;41.10;25.52;;;3.80;99.90;;;;;;4953591;28;20242;-67
2020/12/02 15:25:43;;;;;;;35.53;19.17;;;3.70;99.90;;;;;;4953933;28;20205;-67
2020/12/02 15:28:13;;;;;;;43.85;25.33;;;3.70;99.90;;;;;;4954853;28;20276;-67
2020/12/02 15:30:42;;;;;;;46.05;24.83;;;3.70;99.90;;;;;;4954015;28;20372;-67
2020/12/02 15:33:15;;;;;;;43.50;24.27;;;3.70;99.90;;;;;;4953722;28;20264;-67
2020/12/02 15:35:51;;;;;;;46.78;24.83;;;3.60;99.90;;;;;;4953337;28;20217;-67
2020/12/02 15:38:18;;;;;;;43.15;26.15;;;3.60;99.90;;;;;;4954412;28;20599;-67
2020/12/02 15:40:55;;;;;;;40.05;23.73;;;3.60;99.90;;;;;;4953299;28;20228;-68
2020/12/02 15:43:55;;;;;;;47.63;25.23;;;3.60;99.90;;;;;;4953626;28;20607;-67
2020/12/02 15:46:34;;;;;;;46.08;24.55;;;3.50;99.90;;;;;;4953991;28;20197;-67
2020/12/02 15:49:08;;;;;;;38.85;22.13;;;3.50;99.90;;;;;;4954092;28;20292;-67
2020/12/02 15:51:45;;;;;;;44.78;26.92;;;3.50;99.90;;;;;;4953693;28;20220;-67
2020/12/02 15:54:17;;;;;;;50.35;26.85;;;3.50;99.90;;;;;;4953426;28;20630;-68
2020/12/02 15:57:07;;;;;;;46.10;25.20;;;3.50;99.90;;;;;;4952839;28;20268;-68
2020/12/02 15:59:42;;;;;;;45.28;25.35;;;3.50;99.90;;;;;;4953894;28;20256;-67
2020/12/02 16:02:09;;;;;;;39.83;23.75;;;3.50;99.90;;;;;;4952772;28;20245;-67
2020/12/02 16:04:38;;;;;;;40.75;25.25;;;3.50;99.90;;;;;;4953809;28;20665;-67
2020/12/02 16:07:18;;;;;;;40.70;24.77;;;3.50;99.90;;;;;;4953229;28;20229;-67
2020/12/02 16:09:45;;;;;;;43.70;27.15;;;3.50;99.90;;;;;;4953884;28;20197;-67
2020/12/02 16:12:13;;;;;;;47.83;27.50;;;3.50;99.90;;;;;;4952511;28;20229;-67
2020/12/02 16:14:40;;;;;;;46.20;23.80;;;3.50;99.90;;;;;;4953865;28;20209;-67
2020/12/02 16:17:10;;;;;;;34.83;19.17;;;3.40;99.90;;;;;;4952325;28;20281;-68
2020/12/02 16:19:36;;;;;;;46.72;24.90;;;3.40;99.90;;;;;;4953049;28;20208;-68
2020/12/02 16:22:07;;;;;;;44.25;24.63;;;3.40;99.90;;;;;;4952014;29;20710;-68
2020/12/02 16:24:34;;;;;;;41.42;23.38;;;3.40;99.90;;;;;;4953047;28;20212;-68
2020/12/02 16:27:03;;;;;;;41.63;23.65;;;3.40;99.90;;;;;;4952233;29;20225;-68
2020/12/02 16:29:30;;;;;;;40.85;23.02;;;3.40;99.90;;;;;;4952603;28;20736;-68
2020/12/02 16:31:58;;;;;;;38.75;21.67;;;3.30;99.90;;;;;;4947092;28;20648;-68
2020/12/02 16:34:24;;;;;;;42.35;25.67;;;3.30;99.90;;;;;;4949248;28;20209;-68
2020/12/02 16:36:51;;;;;;;41.88;23.77;;;3.20;99.90;;;;;;4953403;28;20280;-68
2020/12/02 16:39:22;;;;;;;44.08;23.63;;;3.30;99.90;;;;;;4948647;28;20213;-68
2020/12/02 16:42:09;;;;;;;46.55;25.65;;;3.30;99.90;;;;;;4951892;28;20283;-68
2020/12/02 16:44:41;;;;;;;46.45;25.08;;;3.30;99.90;;;;;;4948062;29;20208;-69
2020/12/02 16:47:17;;;;;;;36.35;21.05;;;3.20;99.90;;;;;;4952510;28;20225;-70
2020/12/02 16:50:02;;;;;;;40.25;24.05;;;3.20;99.90;;;;;;4953939;29;20297;-69
2020/12/02 16:52:58;;;;;;;47.17;26.83;;;3.10;99.90;;;;;;4951468;29;20229;-69
2020/12/02 16:55:26;;;;;;;43.22;22.55;;;3.10;99.90;;;;;;4951737;29;20209;-69
2020/12/02 16:57:55;;;;;;;43.38;24.75;;;3.10;99.90;;;;;;4951810;28;20240;-69
2020/12/02 17:00:30;;;;;;;43.90;23.10;;;3.10;99.90;;;;;;4952711;28;20245;-69
2020/12/02 17:03:02;;;;;;;44.65;24.55;;;3.10;99.90;;;;;;4949810;28;20532;-69
2020/12/02 17:05:29;;;;;;;50.80;24.98;;;3.10;99.90;;;;;;4949754;29;20236;-70
2020/12/02 17:07:56;;;;;;;42.35;24.88;;;3.00;99.90;;;;;;4947765;28;20313;-69
2020/12/02 17:10:23;;;;;;;39.45;23.90;;;3.00;99.90;;;;;;4948230;28;20250;-69
2020/12/02 17:13:34;;;;;;;43.55;26.90;;;3.00;99.90;;;;;;4948490;28;20272;-69
2020/12/02 17:16:18;;;;;;;23.83;15.05;;;3.00;99.90;;;;;;4934248;28;20283;-69
2020/12/02 17:19:06;;;;;;;40.55;22.48;;;3.00;99.90;;;;;;4951467;28;20256;-69
2020/12/02 17:21:44;;;;;;;47.13;26.05;;;2.90;99.90;;;;;;4946389;29;20229;-70
2020/12/02 17:24:38;;;;;;;44.53;23.42;;;2.90;99.90;;;;;;4952714;29;20212;-69
2020/12/02 17:27:10;;;;;;;34.15;19.38;;;2.90;99.90;;;;;;4946960;29;20229;-69
2020/12/02 17:29:50;;;;;;;40.58;23.40;;;2.90;99.90;;;;;;4947238;28;20613;-69
2020/12/02 17:32:25;;;;;;;47.15;24.70;;;2.80;99.90;;;;;;4954253;28;20225;-70
2020/12/02 17:35:13;;;;;;;44.92;24.23;;;2.80;99.90;;;;;;4961524;28;20612;-68
2020/12/02 17:37:51;;;;;;;40.65;21.08;;;2.80;99.90;;;;;;4942469;28;20206;-67
2020/12/02 17:40:22;;;;;;;38.67;22.13;;;2.90;99.90;;;;;;4938263;28;20217;-70
2020/12/02 17:43:06;;;;;;;48.55;27.40;;;2.80;99.90;;;;;;4944295;29;20201;-69
2020/12/02 17:45:36;;;;;;;39.65;22.42;;;2.80;99.90;;;;;;4956005;29;20649;-70
2020/12/02 17:48:17;;;;;;;46.42;27.35;;;2.80;99.90;;;;;;4955452;28;20272;-69
2020/12/02 17:50:51;;;;;;;48.47;25.40;;;2.80;99.90;;;;;;4956016;28;20225;-69
2020/12/02 17:53:20;;;;;;;30.33;18.45;;;2.70;99.90;;;;;;4955173;28;20211;-69
2020/12/02 17:55:49;;;;;;;44.85;26.08;;;2.70;99.90;;;;;;4954424;28;20693;-69
2020/12/02 17:58:30;;;;;;;34.55;19.33;;;2.70;99.90;;;;;;4948001;28;20210;-70
2020/12/02 18:01:09;;;;;;;46.92;27.67;;;2.60;99.90;;;;;;4947281;29;20232;-69
2020/12/02 18:03:46;;;;;;;45.28;25.45;;;2.60;99.90;;;;;;4954725;28;20559;-69